Terminal Aerodrome Forecast
Issued by NWS

Home | Current Version | Previous Version | Text Only | Print | Product List | Glossary On
Versions: 1 2 3 4 5 6 7 8 9 10 11 12 13 14 15 16
000
FTUS41 KPHI 250500
TAFPNE
TAF
KPNE 250535Z 2506/2606 VRB03KT P6SM BKN250
     FM251400 15008KT P6SM BKN250
     FM260000 15010KT P6SM BKN050 OVC100
     FM260200 15010KT P6SM -SHRA OVC025
     FM260300 12009KT 5SM -SHRA BR OVC015
     FM260500 09008KT 4SM -SHRA BR OVC007=

USA.gov is the U.S. government's official web portal to all federal, state and local government web resources and services.